Turkey, North Carolina
Current Conditions -  °F | °C
As of 8:35 AM on Saturday 20 Dec 2014 (Local Time) from KCTZ Reporting Station
Drizzle Drizzle  
Wind Chill: 39°   Ceiling: 6500
Heat Index: 39°   Visibility: 5mi
Dew Point: 38°   Wind: 3mph
Humidity: 96%   Direction: 50°NE
Pressure: 30.27"   Gusts: NA
Location:  34.99°N, 78.18°W
Report Text: KCTZ 201335Z AUTO 05003KT 5SM DZ SCT027 SCT042 OVC065 04/03 A3027 RMK AO2 T00370031
Loading
Personal Weather Stations






























Interactive Weather Map New forecast layout! Learn more

10-Day Weather Forecast

Advertisements
Track Severe Weather on mobile